createdAt,value
2022-11-05T00:02:32.290Z,71.65
2022-11-05T00:05:18.463Z,74.72
2022-11-05T00:08:09.015Z,79.28
2022-11-05T00:10:37.967Z,80.45
2022-11-05T00:13:24.994Z,82.80
2022-11-05T00:16:11.542Z,81.15
2022-11-05T00:18:39.260Z,83.40
2022-11-05T00:21:27.260Z,81.60
2022-11-05T00:24:13.560Z,84.85
2022-11-05T00:26:41.728Z,82.30
2022-11-05T00:29:09.335Z,94.47
2022-11-05T00:31:36.915Z,80.45
2022-11-05T00:34:04.523Z,90.40
2022-11-05T00:36:33.407Z,93.90
2022-11-05T00:39:01.606Z,92.07
2022-11-05T00:41:29.588Z,89.50
2022-11-05T00:44:16.796Z,77.18
2022-11-05T00:46:44.646Z,93.10
2022-11-05T00:49:30.113Z,100.15
2022-11-05T00:52:16.140Z,92.50
2022-11-05T00:54:45.116Z,86.03
2022-11-05T00:57:12.773Z,69.53
2022-11-05T00:59:41.420Z,75.95
2022-11-05T01:02:09.165Z,69.35
2022-11-05T01:04:36.962Z,73.05
2022-11-05T01:07:04.816Z,78.50
2022-11-05T01:09:33.083Z,79.55
2022-11-05T01:12:00.817Z,83.80
2022-11-05T01:14:28.482Z,86.53
2022-11-05T01:16:56.015Z,92.95
2022-11-05T01:19:23.619Z,79.82
2022-11-05T01:21:51.257Z,71.50
2022-11-05T01:24:19.072Z,91.03
2022-11-05T01:26:47.381Z,91.10
2022-11-05T01:29:15.300Z,75.63
2022-11-05T01:31:44.210Z,79.45
2022-11-05T01:34:11.804Z,82.47
2022-11-05T01:36:39.348Z,79.55
2022-11-05T01:39:06.893Z,81.63
2022-11-05T01:41:34.488Z,79.43
2022-11-05T01:44:03.439Z,100.82
2022-11-05T01:46:40.341Z,82.28
2022-11-05T01:49:15.508Z,90.20
2022-11-05T01:51:43.074Z,78.22
2022-11-05T01:54:12.657Z,93.07
2022-11-05T01:56:42.844Z,74.57
2022-11-05T01:59:12.570Z,90.95
2022-11-05T02:01:40.204Z,78.38
2022-11-05T02:04:10.354Z,72.20
2022-11-05T02:06:46.184Z,51.50
2022-11-05T02:09:28.596Z,75.13
2022-11-05T02:11:56.372Z,72.82
2022-11-05T02:14:24.054Z,88.03
2022-11-05T02:17:15.171Z,95.82
2022-11-05T02:20:20.445Z,78.13
2022-11-05T02:22:47.959Z,72.80
2022-11-05T02:25:30.524Z,67.72
2022-11-05T02:28:04.035Z,72.90
2022-11-05T02:30:38.479Z,75.05
2022-11-05T02:33:47.819Z,86.80
2022-11-05T02:36:32.561Z,75.18
2022-11-05T02:39:17.564Z,81.70
2022-11-05T02:41:51.125Z,75.97
2022-11-05T02:44:41.946Z,83.25
2022-11-05T02:47:24.307Z,90.63
2022-11-05T02:50:14.187Z,83.78
2022-11-05T02:53:04.180Z,98.40
2022-11-05T02:55:42.627Z,102.97
2022-11-05T02:58:10.343Z,75.75
2022-11-05T03:00:51.830Z,80.13
2022-11-05T03:03:25.398Z,78.07
2022-11-05T03:05:52.964Z,65.97
2022-11-05T03:08:41.366Z,84.15
2022-11-05T03:11:15.890Z,94.05
2022-11-05T03:14:07.251Z,77.55
2022-11-05T03:16:44.584Z,75.03
2022-11-05T03:19:30.652Z,70.65
2022-11-05T03:22:02.864Z,82.95
2022-11-05T03:24:35.648Z,73.63
2022-11-05T03:27:06.768Z,91.63
2022-11-05T03:29:41.708Z,74.55
2022-11-05T03:32:09.407Z,66.40
2022-11-05T03:34:43.152Z,65.15
2022-11-05T03:37:11.019Z,60.85
2022-11-05T03:39:46.110Z,59.53
2022-11-05T03:42:15.952Z,65.80
2022-11-05T03:44:46.495Z,65.13
2022-11-05T03:47:15.835Z,61.03
2022-11-05T03:49:56.782Z,65.07
2022-11-05T03:52:26.528Z,61.10
2022-11-05T03:54:54.189Z,114.53
2022-11-05T03:57:27.028Z,69.22
2022-11-05T03:59:54.831Z,81.38
2022-11-05T04:02:23.653Z,94.13
2022-11-05T04:04:52.489Z,100.20
2022-11-05T04:07:38.715Z,92.57
2022-11-05T04:10:28.178Z,99.03
2022-11-05T04:13:14.528Z,100.75
2022-11-05T04:16:01.405Z,125.50
2022-11-05T04:18:29.307Z,78.50
2022-11-05T04:21:18.047Z,143.52
2022-11-05T04:24:04.014Z,52.67
2022-11-05T04:26:31.732Z,79.68
2022-11-05T04:29:17.922Z,75.45
2022-11-05T04:31:47.372Z,75.50
2022-11-05T04:34:16.435Z,125.60
2022-11-05T04:36:44.064Z,75.22
2022-11-05T04:39:11.812Z,74.53
2022-11-05T04:41:39.562Z,55.83
2022-11-05T04:44:08.489Z,72.05
2022-11-05T04:46:36.179Z,149.77
2022-11-05T04:49:03.791Z,98.97
2022-11-05T04:51:33.288Z,164.38
2022-11-05T04:54:01.072Z,329.83
2022-11-05T04:56:31.433Z,531.83
2022-11-05T04:58:59.066Z,974.15
2022-11-05T05:01:26.711Z,414.92
2022-11-05T05:03:54.470Z,470.02
2022-11-05T05:06:22.774Z,408.55
2022-11-05T05:08:51.075Z,522.58
2022-11-05T05:11:20.664Z,798.95
2022-11-05T05:13:48.538Z,585.75
2022-11-05T05:16:23.131Z,530.40
2022-11-05T05:18:50.942Z,723.05
2022-11-05T05:21:39.469Z,432.95
2022-11-05T05:24:11.871Z,379.00
2022-11-05T05:26:49.125Z,447.65
2022-11-05T05:29:17.298Z,294.52
2022-11-05T05:31:45.036Z,994.95
2022-11-05T05:34:13.900Z,342.92
2022-11-05T05:36:41.572Z,252.90
2022-11-05T05:39:11.125Z,266.88
2022-11-05T05:41:38.893Z,262.27
2022-11-05T05:44:06.873Z,251.93
2022-11-05T05:46:34.571Z,220.85
2022-11-05T05:49:04.521Z,138.82
2022-11-05T05:51:35.504Z,137.70
2022-11-05T05:54:03.563Z,111.72
2022-11-05T05:56:31.250Z,104.60
2022-11-05T05:58:58.883Z,120.13
2022-11-05T06:01:26.856Z,111.15
2022-11-05T06:03:54.741Z,99.53
2022-11-05T06:06:22.866Z,119.07
2022-11-05T06:08:50.647Z,88.75
2022-11-05T06:11:18.487Z,88.05
2022-11-05T06:13:46.167Z,103.60
2022-11-05T06:16:15.118Z,111.25
2022-11-05T06:18:42.835Z,103.20
2022-11-05T06:21:12.121Z,127.20
2022-11-05T06:23:40.717Z,120.78
2022-11-05T06:26:12.615Z,129.75
2022-11-05T06:28:42.244Z,123.22
2022-11-05T06:31:11.009Z,102.72
2022-11-05T06:33:39.033Z,99.28
2022-11-05T06:36:07.655Z,97.72
2022-11-05T06:38:36.356Z,105.60
2022-11-05T06:41:09.863Z,90.60
2022-11-05T06:43:38.334Z,92.05
2022-11-05T06:46:06.005Z,99.60
2022-11-05T06:48:35.546Z,93.20
2022-11-05T06:51:03.861Z,92.47
2022-11-05T06:53:31.652Z,85.13
2022-11-05T06:56:03.134Z,85.03
2022-11-05T06:58:31.403Z,89.43
2022-11-05T07:01:08.172Z,76.80
2022-11-05T07:03:39.167Z,81.40
2022-11-05T07:06:07.305Z,80.25
2022-11-05T07:08:35.496Z,76.38
2022-11-05T07:11:03.828Z,79.30
2022-11-05T07:13:32.160Z,65.88
2022-11-05T07:16:01.481Z,69.38
2022-11-05T07:18:29.342Z,72.68
2022-11-05T07:20:57.039Z,56.88
2022-11-05T07:23:25.677Z,47.40
2022-11-05T07:25:53.349Z,46.13
2022-11-05T07:28:21.602Z,42.20
2022-11-05T07:30:49.568Z,39.83
2022-11-05T07:33:17.116Z,44.20
2022-11-05T07:35:44.932Z,57.90
2022-11-05T07:38:12.840Z,173.60
2022-11-05T07:40:40.917Z,110.15
2022-11-05T07:43:09.387Z,55.92
2022-11-05T07:45:37.506Z,37.55
2022-11-05T07:48:06.534Z,35.25
2022-11-05T07:50:36.283Z,38.80
2022-11-05T07:53:05.809Z,40.83
2022-11-05T07:55:33.912Z,41.17
2022-11-05T07:58:07.742Z,45.42
2022-11-05T08:00:35.797Z,38.20
2022-11-05T08:03:08.888Z,39.33
2022-11-05T08:05:44.476Z,167.82
2022-11-05T08:08:17.537Z,59.20
2022-11-05T08:10:45.311Z,43.20
2022-11-05T08:13:13.556Z,40.25
2022-11-05T08:15:42.413Z,110.28
2022-11-05T08:18:15.467Z,41.58
2022-11-05T08:20:43.639Z,40.60
2022-11-05T08:23:12.676Z,40.92
2022-11-05T08:25:42.595Z,38.60
2022-11-05T08:28:11.711Z,36.38
2022-11-05T08:30:57.960Z,193.70
2022-11-05T08:33:25.825Z,51.05
2022-11-05T08:35:53.564Z,38.70
2022-11-05T08:38:21.383Z,41.97
2022-11-05T08:40:57.603Z,58.03
2022-11-05T08:43:25.625Z,45.33
2022-11-05T08:45:54.245Z,41.45
2022-11-05T08:48:21.970Z,45.00
2022-11-05T08:50:49.920Z,44.63
2022-11-05T08:53:17.693Z,41.17
2022-11-05T08:55:47.719Z,48.83
2022-11-05T08:58:17.172Z,45.53
2022-11-05T09:00:46.399Z,47.08
2022-11-05T09:03:14.553Z,47.60
2022-11-05T09:05:43.136Z,71.40
2022-11-05T09:08:19.752Z,45.53
2022-11-05T09:10:47.697Z,106.78
2022-11-05T09:13:19.732Z,47.20
2022-11-05T09:15:49.292Z,46.08
2022-11-05T09:18:17.242Z,40.78
2022-11-05T09:20:45.128Z,45.47
2022-11-05T09:23:15.030Z,39.15
2022-11-05T09:25:43.534Z,45.90
2022-11-05T09:28:22.503Z,39.92
2022-11-05T09:30:51.482Z,35.42
2022-11-05T09:33:24.305Z,33.10
2022-11-05T09:35:52.911Z,51.45
2022-11-05T09:38:20.478Z,50.38
2022-11-05T09:41:12.678Z,43.25
2022-11-05T09:49:04.436Z,45.05
2022-11-05T09:51:32.270Z,31.50
2022-11-05T09:54:03.021Z,23.75
2022-11-05T09:56:32.296Z,26.08
2022-11-05T09:59:17.245Z,28.35
2022-11-05T10:01:45.307Z,25.85
2022-11-05T10:04:21.001Z,30.65
2022-11-05T10:06:58.654Z,28.48
2022-11-05T10:09:33.234Z,32.58
2022-11-05T10:12:11.874Z,29.13
2022-11-05T10:14:51.386Z,35.90
2022-11-05T10:17:25.269Z,29.35
2022-11-05T10:20:24.915Z,20.15
2022-11-05T10:22:56.188Z,25.17
2022-11-05T10:25:26.960Z,22.13
2022-11-05T10:27:55.287Z,19.92
2022-11-05T10:30:23.651Z,26.52
2022-11-05T10:32:56.792Z,23.77
2022-11-05T10:35:24.743Z,25.63
2022-11-05T10:37:53.759Z,26.10
2022-11-05T10:40:39.549Z,22.15
2022-11-05T10:43:12.023Z,24.33
2022-11-05T10:45:53.039Z,24.48
2022-11-05T10:48:20.466Z,26.33
2022-11-05T10:51:08.197Z,30.67
2022-11-05T10:53:39.708Z,37.10
2022-11-05T10:58:57.559Z,31.63
2022-11-05T11:01:26.716Z,35.08
2022-11-05T11:04:13.261Z,24.00
2022-11-05T11:06:45.201Z,31.08
2022-11-05T11:09:29.259Z,43.55
2022-11-05T11:12:00.225Z,33.13
2022-11-05T11:14:28.117Z,29.05
2022-11-05T11:16:58.773Z,27.38
2022-11-05T11:19:33.295Z,41.60
2022-11-05T11:22:05.631Z,31.83
2022-11-05T11:24:40.547Z,29.95
2022-11-05T11:27:14.377Z,23.52
2022-11-05T11:29:55.271Z,22.55
2022-11-05T11:32:23.250Z,24.92
2022-11-05T11:34:53.060Z,24.77
2022-11-05T11:37:30.590Z,26.35
2022-11-05T11:40:02.538Z,15.05
2022-11-05T11:42:34.197Z,15.32
2022-11-05T11:45:07.946Z,18.20
2022-11-05T11:47:36.422Z,17.67
2022-11-05T11:50:05.066Z,19.10
2022-11-05T11:52:37.042Z,16.17
2022-11-05T11:55:18.692Z,19.10
2022-11-05T11:57:55.650Z,19.55
2022-11-05T12:00:24.065Z,18.92
2022-11-05T12:03:18.033Z,21.60
2022-11-05T12:05:48.873Z,20.33
2022-11-05T12:09:06.780Z,21.42
2022-11-05T12:11:45.216Z,21.67
2022-11-05T12:14:33.093Z,18.63
2022-11-05T12:17:34.390Z,20.40
2022-11-05T12:20:10.211Z,22.33
2022-11-05T12:23:19.295Z,21.05
2022-11-05T12:26:07.961Z,21.75
2022-11-05T12:29:12.058Z,21.75
2022-11-05T12:31:43.910Z,22.30
2022-11-05T12:34:34.326Z,22.85
2022-11-05T12:37:07.759Z,20.80
2022-11-05T12:39:45.475Z,19.58
2022-11-05T12:42:31.392Z,23.27
2022-11-05T12:45:36.140Z,26.60
2022-11-05T12:48:41.417Z,27.45
2022-11-05T12:51:31.124Z,21.55
2022-11-05T12:54:22.583Z,22.92
2022-11-05T12:57:19.658Z,23.88
2022-11-05T12:59:55.015Z,22.35
2022-11-05T13:02:45.852Z,20.95
2022-11-05T13:05:39.239Z,22.50
2022-11-05T13:08:14.501Z,23.02
2022-11-05T13:10:49.689Z,23.30
2022-11-05T13:13:39.139Z,23.65
2022-11-05T13:16:29.931Z,20.05
2022-11-05T13:19:17.595Z,18.60
2022-11-05T13:21:52.606Z,21.95
2022-11-05T13:24:36.331Z,23.30
2022-11-05T13:27:25.380Z,27.88
2022-11-05T13:30:02.792Z,27.88
2022-11-05T13:32:34.864Z,26.65
2022-11-05T13:35:08.778Z,30.98
2022-11-05T13:38:00.004Z,28.92
2022-11-05T13:40:56.138Z,35.05
2022-11-05T13:43:35.904Z,35.63
2022-11-05T13:46:23.021Z,39.83
2022-11-05T13:48:56.767Z,46.05
2022-11-05T13:51:48.218Z,42.17
2022-11-05T13:57:31.889Z,29.42
2022-11-05T14:00:19.561Z,48.67
2022-11-05T14:02:49.533Z,51.78
2022-11-05T14:05:28.439Z,53.25
2022-11-05T14:07:58.163Z,65.40
2022-11-05T14:10:38.206Z,67.28
2022-11-05T14:13:33.554Z,66.93
2022-11-05T14:16:05.069Z,68.78
2022-11-05T14:18:44.411Z,65.93
2022-11-05T14:21:27.495Z,64.18
2022-11-05T14:24:00.427Z,69.03
2022-11-05T14:26:30.143Z,64.45
2022-11-05T14:29:03.831Z,66.93
2022-11-05T14:31:54.335Z,70.30
2022-11-05T14:34:44.939Z,72.55
2022-11-05T14:37:24.321Z,68.60
2022-11-05T14:39:56.582Z,77.32
2022-11-05T14:44:59.034Z,63.80
2022-11-05T14:47:29.142Z,77.50
2022-11-05T14:50:18.065Z,72.60
2022-11-05T14:52:57.359Z,79.60
2022-11-05T14:55:31.533Z,83.00
2022-11-05T14:57:59.193Z,86.28
2022-11-05T15:00:29.761Z,93.22
2022-11-05T15:03:00.016Z,109.88
2022-11-05T15:05:50.153Z,79.53
2022-11-05T15:08:24.897Z,75.03
2022-11-05T15:10:53.724Z,76.18
2022-11-05T15:13:30.434Z,66.72
2022-11-05T15:15:59.338Z,70.15
2022-11-05T15:18:37.104Z,67.18
2022-11-05T15:21:08.032Z,76.93
2022-11-05T15:23:42.144Z,63.75
2022-11-05T15:26:21.249Z,78.88
2022-11-05T15:28:55.410Z,79.32
2022-11-05T15:31:43.765Z,72.10
2022-11-05T15:34:39.937Z,65.95
2022-11-05T15:37:11.769Z,72.13
2022-11-05T15:39:44.871Z,57.10
2022-11-05T15:42:18.616Z,57.97
2022-11-05T15:44:53.480Z,52.10
2022-11-05T15:47:31.117Z,51.33
2022-11-05T15:50:07.500Z,55.33
2022-11-05T15:52:42.988Z,58.10
2022-11-05T15:55:13.299Z,51.47
2022-11-05T15:57:50.647Z,55.15
2022-11-05T16:00:29.567Z,51.00
2022-11-05T16:03:04.809Z,48.60
2022-11-05T16:05:36.660Z,50.08
2022-11-05T16:08:05.651Z,49.25
2022-11-05T16:10:35.848Z,47.40
2022-11-05T16:13:28.403Z,42.88
2022-11-05T16:15:57.857Z,48.15
2022-11-05T16:18:30.587Z,48.42
2022-11-05T16:21:17.201Z,47.85
2022-11-05T16:24:01.262Z,45.35
2022-11-05T16:27:02.177Z,40.63
2022-11-05T16:29:27.534Z,44.30
2022-11-05T16:31:56.020Z,35.78
2022-11-05T16:34:31.756Z,39.35
2022-11-05T16:36:59.695Z,39.17
2022-11-05T16:39:28.202Z,35.22
2022-11-05T16:41:56.066Z,40.53
2022-11-05T16:44:24.821Z,34.95
2022-11-05T16:46:52.809Z,37.13
2022-11-05T16:49:20.658Z,38.60
2022-11-05T16:51:48.415Z,33.85
2022-11-05T16:54:17.013Z,39.63
2022-11-05T16:56:47.090Z,34.05
2022-11-05T16:59:15.612Z,32.97
2022-11-05T17:01:44.683Z,32.83
2022-11-05T17:04:14.351Z,38.95
2022-11-05T17:06:45.182Z,34.67
2022-11-05T17:09:13.101Z,33.03
2022-11-05T17:11:41.076Z,32.58
2022-11-05T17:14:11.441Z,34.42
2022-11-05T17:16:40.238Z,30.48
2022-11-05T17:19:10.396Z,32.38
2022-11-05T17:21:40.455Z,27.83
2022-11-05T17:24:09.768Z,26.15
2022-11-05T17:26:38.619Z,28.30
2022-11-05T17:29:07.175Z,25.23
2022-11-05T17:31:35.355Z,27.77
2022-11-05T17:34:03.847Z,26.98
2022-11-05T17:36:34.493Z,28.52
2022-11-05T17:39:04.628Z,28.70
2022-11-05T17:41:33.693Z,26.58
2022-11-05T17:44:01.818Z,27.50
2022-11-05T17:46:29.837Z,32.45
2022-11-05T17:48:57.591Z,27.45
2022-11-05T17:51:25.603Z,30.10
2022-11-05T17:53:53.626Z,30.13
2022-11-05T17:56:33.442Z,27.27
2022-11-05T17:59:02.723Z,30.25
2022-11-05T18:01:33.584Z,38.63
2022-11-05T18:04:08.249Z,37.70
2022-11-05T18:06:38.691Z,44.75
2022-11-05T18:09:07.274Z,44.33
2022-11-05T18:11:36.373Z,37.03
2022-11-05T18:14:04.926Z,41.28
2022-11-05T18:16:33.120Z,40.67
2022-11-05T18:19:01.188Z,35.50
2022-11-05T18:21:30.189Z,41.17
2022-11-05T18:23:58.102Z,42.75
2022-11-05T18:26:25.923Z,45.83
2022-11-05T18:28:53.795Z,40.38
2022-11-05T18:31:21.766Z,48.72
2022-11-05T18:33:49.881Z,46.63
2022-11-05T18:36:28.177Z,55.78
2022-11-05T18:38:57.839Z,45.08
2022-11-05T18:41:25.488Z,49.95
2022-11-05T18:43:53.151Z,49.03
2022-11-05T18:46:51.327Z,49.33
2022-11-05T18:49:10.098Z,62.40
2022-11-05T18:51:37.780Z,55.70
2022-11-05T18:54:05.505Z,55.08
2022-11-05T18:56:33.384Z,55.97
2022-11-05T18:59:30.118Z,57.50
2022-11-05T19:01:50.965Z,51.42
2022-11-05T19:04:19.281Z,55.70
2022-11-05T19:06:48.796Z,57.88
2022-11-05T19:09:17.272Z,60.95
2022-11-05T19:11:45.345Z,61.55
2022-11-05T19:14:13.250Z,65.72
2022-11-05T19:16:41.180Z,61.80
2022-11-05T19:19:10.244Z,63.55
2022-11-05T19:21:39.786Z,63.25
2022-11-05T19:24:08.484Z,62.30
2022-11-05T19:26:36.259Z,64.63
2022-11-05T19:29:04.787Z,62.45
2022-11-05T19:31:34.369Z,59.90
2022-11-05T19:34:03.531Z,63.47
2022-11-05T19:39:04.617Z,60.55
2022-11-05T19:41:33.506Z,55.03
2022-11-05T19:44:02.661Z,62.13
2022-11-05T19:46:31.098Z,60.70
2022-11-05T19:49:00.501Z,50.42
2022-11-05T19:51:29.892Z,62.15
2022-11-05T19:54:00.189Z,53.88
2022-11-05T19:56:29.995Z,59.15
2022-11-05T19:58:57.883Z,57.13
2022-11-05T20:01:26.901Z,50.55
2022-11-05T20:03:55.630Z,55.63
2022-11-05T20:06:34.927Z,50.83
2022-11-05T20:11:56.507Z,54.58
2022-11-05T20:14:25.037Z,54.53
2022-11-05T20:16:52.948Z,54.15
2022-11-05T20:19:21.625Z,56.42
2022-11-05T20:21:50.136Z,54.97
2022-11-05T20:24:24.074Z,48.97
2022-11-05T20:26:54.680Z,51.15
2022-11-05T20:29:22.429Z,50.70
2022-11-05T20:31:50.444Z,50.13
2022-11-05T20:34:17.943Z,47.35
2022-11-05T20:36:45.699Z,45.55
2022-11-05T20:39:13.361Z,47.97
2022-11-05T20:41:40.963Z,52.30
2022-11-05T20:44:08.575Z,44.17
2022-11-05T20:46:36.240Z,49.22
2022-11-05T20:49:03.793Z,43.60
2022-11-05T20:51:31.390Z,46.78
2022-11-05T20:53:59.959Z,43.10
2022-11-05T20:56:29.713Z,47.95
2022-11-05T20:58:58.599Z,44.03
2022-11-05T21:01:31.145Z,42.80
2022-11-05T21:04:00.170Z,42.67
2022-11-05T21:06:28.003Z,45.38
2022-11-05T21:08:55.711Z,45.65
2022-11-05T21:11:50.319Z,41.78
2022-11-05T21:14:18.138Z,46.78
2022-11-05T21:16:45.738Z,42.40
2022-11-05T21:19:15.272Z,44.78
2022-11-05T21:21:42.775Z,40.67
2022-11-05T21:24:10.348Z,43.47
2022-11-05T21:26:37.892Z,47.63
2022-11-05T21:29:05.768Z,40.22
2022-11-05T21:31:38.572Z,42.17
2022-11-05T21:34:06.525Z,44.05
2022-11-05T21:36:34.281Z,47.15
2022-11-05T21:39:02.030Z,40.58
2022-11-05T21:41:31.146Z,44.03
2022-11-05T21:43:58.868Z,43.97
2022-11-05T21:46:26.551Z,47.28
2022-11-05T21:48:54.115Z,46.22
2022-11-05T21:51:40.558Z,40.83
2022-11-05T21:54:28.703Z,47.83
2022-11-05T21:57:15.202Z,44.30
2022-11-05T21:59:49.267Z,43.08
2022-11-05T22:02:20.868Z,46.22
2022-11-05T22:04:53.338Z,43.97
2022-11-05T22:07:23.188Z,49.20
2022-11-05T22:09:50.754Z,41.92
2022-11-05T22:12:20.375Z,39.78
2022-11-05T22:14:48.628Z,41.55
2022-11-05T22:17:16.684Z,44.25
2022-11-05T22:19:45.035Z,43.88
2022-11-05T22:22:12.660Z,48.65
2022-11-05T22:24:40.366Z,43.47
2022-11-05T22:27:12.530Z,48.05
2022-11-05T22:29:40.122Z,45.40
2022-11-05T22:32:07.820Z,44.85
2022-11-05T22:34:35.815Z,45.92
2022-11-05T22:37:03.630Z,45.95
2022-11-05T22:39:31.610Z,44.10
2022-11-05T22:42:02.965Z,38.35
2022-11-05T22:44:33.271Z,37.63
2022-11-05T22:47:00.945Z,42.80
2022-11-05T22:49:28.978Z,35.47
2022-11-05T22:51:56.756Z,33.05
2022-11-05T22:54:24.327Z,38.25
2022-11-05T22:56:53.877Z,36.20
2022-11-05T22:59:21.628Z,34.38
2022-11-05T23:01:49.548Z,32.55
2022-11-05T23:04:17.924Z,29.85
2022-11-05T23:07:04.405Z,30.70
2022-11-05T23:09:51.829Z,32.90
2022-11-05T23:12:21.985Z,32.25
2022-11-05T23:14:49.830Z,27.90
2022-11-05T23:17:36.314Z,31.60
2022-11-05T23:20:29.930Z,33.40
2022-11-05T23:23:16.077Z,29.48
2022-11-05T23:25:43.644Z,32.90
2022-11-05T23:28:11.593Z,28.10
2022-11-05T23:31:01.627Z,30.17
2022-11-05T23:33:29.471Z,35.55
2022-11-05T23:36:15.506Z,28.10
2022-11-05T23:38:43.082Z,26.88
2022-11-05T23:41:29.043Z,25.23
2022-11-05T23:44:15.166Z,26.60
2022-11-05T23:47:01.373Z,25.80
2022-11-05T23:49:29.075Z,26.83
2022-11-05T23:51:56.669Z,22.83
2022-11-05T23:54:25.278Z,24.98
2022-11-05T23:56:53.675Z,23.00
2022-11-05T23:59:21.283Z,21.42
